Time;durP1;ratioP1;P1;durP2;ratioP2;P2;SDS_P1;SDS_P2;PMS_P1;PMS_P2;Temp;Humidity;BMP_temperature;BMP_pressure;BME280_temperature;BME280_humidity;BME280_pressure;Samples;Min_cycle;Max_cycle;Signal;HPM_P1;HPM_P2
2021/12/04 00:01:48;;;;;;;5.90;5.32;;;5.80;90.10;;;;;;5027797;28;20045;-70
2021/12/04 00:04:20;;;;;;;6.80;6.13;;;5.80;90.10;;;;;;5022441;28;20029;-70
2021/12/04 00:06:45;;;;;;;6.97;6.38;;;5.80;90.10;;;;;;5023643;28;20472;-69
2021/12/04 00:09:12;;;;;;;7.20;6.60;;;5.80;90.10;;;;;;5024411;28;20121;-70
2021/12/04 00:11:41;;;;;;;8.40;7.60;;;5.80;90.10;;;;;;5024781;28;20030;-70
2021/12/04 00:14:06;;;;;;;8.48;7.70;;;5.80;90.00;;;;;;5027049;28;20029;-70
2021/12/04 00:16:32;;;;;;;9.10;8.30;;;5.80;90.00;;;;;;5030820;28;20052;-70
2021/12/04 00:18:58;;;;;;;8.43;7.68;;;5.80;90.10;;;;;;5026348;28;20627;-70
2021/12/04 00:21:23;;;;;;;9.38;8.50;;;5.80;90.10;;;;;;5027314;28;20046;-70
2021/12/04 00:23:49;;;;;;;8.80;8.00;;;5.80;90.10;;;;;;5026609;28;20112;-70
2021/12/04 00:26:14;;;;;;;11.32;10.05;;;5.80;90.10;;;;;;5009655;28;20065;-70
2021/12/04 00:28:40;;;;;;;10.27;9.27;;;5.80;90.00;;;;;;5026823;28;20025;-70
2021/12/04 00:31:09;;;;;;;9.75;8.77;;;5.80;90.00;;;;;;5027378;28;20034;-72
2021/12/04 00:33:37;;;;;;;10.20;9.20;;;5.80;90.10;;;;;;5026583;28;20123;-70
2021/12/04 00:36:58;;;;;;;9.48;8.57;;;5.80;90.10;;;;;;5027319;28;20026;-70
2021/12/04 00:49:47;;;;;;;10.63;9.52;;;5.80;90.10;;;;;;5029008;28;20048;-70
2021/12/04 00:52:12;;;;;;;9.82;8.93;;;5.70;90.10;;;;;;5027238;28;20030;-66
2021/12/04 00:54:38;;;;;;;10.48;9.48;;;5.80;90.10;;;;;;5035758;28;20104;-66
2021/12/04 00:57:04;;;;;;;9.75;8.82;;;5.80;90.10;;;;;;5028761;28;20354;-66
2021/12/04 00:59:30;;;;;;;10.52;9.40;;;5.80;90.10;;;;;;5025487;28;20037;-66
2021/12/04 01:01:56;;;;;;;10.50;9.50;;;5.80;90.10;;;;;;5027029;28;20037;-65
2021/12/04 01:04:22;;;;;;;9.82;8.82;;;5.80;90.10;;;;;;5029536;28;20117;-66
2021/12/04 01:06:49;;;;;;;11.50;10.40;;;5.80;90.00;;;;;;5030758;28;20503;-66
2021/12/04 01:09:19;;;;;;;11.95;10.15;;;5.80;90.10;;;;;;5009153;28;20033;-66
2021/12/04 01:11:47;;;;;;;10.48;8.68;;;5.90;90.10;;;;;;5026494;28;20125;-66
2021/12/04 01:14:16;;;;;;;9.50;8.63;;;5.80;90.00;;;;;;5028705;28;20890;-66
2021/12/04 01:16:41;;;;;;;9.82;8.82;;;5.90;90.10;;;;;;5028067;28;20101;-68
2021/12/04 01:19:07;;;;;;;9.38;8.48;;;5.90;90.10;;;;;;5032435;28;20121;-68
2021/12/04 01:21:33;;;;;;;9.85;8.85;;;5.90;90.10;;;;;;5030992;28;20053;-68
2021/12/04 01:23:59;;;;;;;9.48;8.38;;;5.90;90.00;;;;;;5029267;28;20041;-68
2021/12/04 01:26:25;;;;;;;9.63;8.73;;;5.90;90.00;;;;;;5011918;28;20030;-68
2021/12/04 01:28:50;;;;;;;9.20;8.30;;;5.90;90.00;;;;;;5012947;28;20491;-68
2021/12/04 01:31:16;;;;;;;10.10;9.10;;;5.90;90.00;;;;;;5012536;28;20026;-68
2021/12/04 01:33:42;;;;;;;9.77;8.77;;;5.90;90.00;;;;;;5012232;28;20419;-69
2021/12/04 01:36:09;;;;;;;10.25;9.10;;;5.90;90.00;;;;;;5012132;28;20443;-68
2021/12/04 01:38:35;;;;;;;9.73;8.82;;;5.80;90.00;;;;;;5012120;28;20025;-68
2021/12/04 01:41:02;;;;;;;9.23;8.32;;;5.90;90.10;;;;;;5012303;28;20040;-68
2021/12/04 01:43:27;;;;;;;10.77;9.43;;;5.90;90.10;;;;;;5012088;28;20057;-66
2021/12/04 01:45:54;;;;;;;10.77;9.77;;;5.80;90.00;;;;;;4998826;28;20060;-72
2021/12/04 01:48:20;;;;;;;10.65;9.55;;;5.90;90.10;;;;;;5030091;28;20506;-72
2021/12/04 01:50:46;;;;;;;10.05;9.05;;;5.90;90.10;;;;;;5031867;28;20128;-72
2021/12/04 01:53:12;;;;;;;9.98;9.07;;;5.90;90.00;;;;;;5031768;28;20467;-72
2021/12/04 01:55:38;;;;;;;10.75;9.65;;;5.90;90.00;;;;;;5029697;28;20025;-72
2021/12/04 01:58:05;;;;;;;11.57;9.60;;;5.90;90.00;;;;;;5029361;28;20029;-72
2021/12/04 02:00:34;;;;;;;11.10;10.00;;;5.90;90.00;;;;;;5029646;28;20018;-72
2021/12/04 02:03:03;;;;;;;10.48;9.38;;;5.90;90.00;;;;;;5031563;28;20084;-72
2021/12/04 02:05:28;;;;;;;9.88;8.98;;;5.90;90.10;;;;;;5030463;28;20048;-72
2021/12/04 02:07:54;;;;;;;11.13;10.02;;;5.90;90.10;;;;;;5039583;28;20025;-72
2021/12/04 02:10:20;;;;;;;11.50;10.30;;;5.90;90.30;;;;;;5025321;28;20618;-72
2021/12/04 02:12:47;;;;;;;11.05;9.95;;;5.90;90.10;;;;;;5022469;28;20030;-72
2021/12/04 02:15:15;;;;;;;10.30;9.30;;;5.90;90.10;;;;;;5016554;28;20043;-72
2021/12/04 02:17:41;;;;;;;10.02;9.07;;;5.90;90.10;;;;;;5030430;28;20052;-72
2021/12/04 02:20:16;;;;;;;10.77;9.68;;;5.90;90.10;;;;;;5029705;28;20132;-72
2021/12/04 02:22:42;;;;;;;10.38;9.40;;;5.90;90.10;;;;;;5030374;28;20065;-72
2021/12/04 02:25:09;;;;;;;10.35;9.35;;;5.90;90.10;;;;;;5012612;28;20061;-73
2021/12/04 02:27:36;;;;;;;11.05;9.95;;;5.90;90.10;;;;;;5023479;28;20109;-68
2021/12/04 02:30:08;;;;;;;10.10;9.10;;;5.90;90.10;;;;;;5029492;28;20034;-68
2021/12/04 02:32:34;;;;;;;12.02;10.35;;;5.90;90.10;;;;;;5029199;28;20024;-68
2021/12/04 02:34:59;;;;;;;10.48;9.38;;;5.90;90.10;;;;;;5030580;28;20038;-72
2021/12/04 02:37:25;;;;;;;10.20;9.20;;;5.90;90.10;;;;;;5030045;28;20113;-72
2021/12/04 02:39:58;;;;;;;10.18;9.07;;;5.90;90.00;;;;;;5028863;28;20032;-72
2021/12/04 02:42:27;;;;;;;9.80;8.80;;;6.00;90.10;;;;;;5030268;28;20026;-72
2021/12/04 02:44:53;;;;;;;9.88;8.88;;;5.90;90.10;;;;;;5028958;28;20065;-72
2021/12/04 02:47:19;;;;;;;10.02;9.02;;;5.90;90.00;;;;;;5021067;28;20068;-72
2021/12/04 02:49:45;;;;;;;10.70;9.00;;;6.00;90.00;;;;;;5026145;28;20076;-72
2021/12/04 02:52:12;;;;;;;9.65;8.65;;;5.90;90.00;;;;;;5028896;28;20112;-72
2021/12/04 02:54:38;;;;;;;10.50;8.70;;;5.90;90.00;;;;;;5030220;28;20035;-72
2021/12/04 02:57:06;;;;;;;10.25;8.80;;;5.90;90.00;;;;;;5027784;28;20389;-72
2021/12/04 02:59:37;;;;;;;9.63;8.73;;;5.90;90.00;;;;;;5028653;28;20564;-72
2021/12/04 03:02:04;;;;;;;14.25;10.13;;;5.90;90.00;;;;;;5028874;28;20129;-72
2021/12/04 03:04:31;;;;;;;10.18;8.98;;;5.90;90.00;;;;;;5027982;28;20465;-72
2021/12/04 03:06:57;;;;;;;11.55;8.30;;;5.90;90.00;;;;;;5019313;28;20042;-72
2021/12/04 03:09:23;;;;;;;10.80;8.35;;;5.90;90.10;;;;;;5016916;28;20064;-72
2021/12/04 03:11:49;;;;;;;9.30;8.40;;;5.90;90.00;;;;;;5029290;28;20088;-72
2021/12/04 03:14:17;;;;;;;8.48;7.63;;;5.90;90.00;;;;;;5032051;28;20072;-73
2021/12/04 03:16:43;;;;;;;9.23;7.95;;;6.00;90.00;;;;;;5039694;28;20033;-70
2021/12/04 03:19:09;;;;;;;8.45;7.65;;;6.00;90.00;;;;;;5028918;28;20057;-70
2021/12/04 03:21:37;;;;;;;8.52;7.63;;;6.00;90.00;;;;;;5029937;28;20072;-70
2021/12/04 03:24:06;;;;;;;8.20;7.35;;;6.00;90.00;;;;;;5018848;28;20133;-72
2021/12/04 03:26:32;;;;;;;7.68;6.97;;;6.00;90.00;;;;;;5013287;28;20534;-72
2021/12/04 03:29:02;;;;;;;8.65;6.85;;;6.00;89.90;;;;;;5029993;28;20112;-72
2021/12/04 03:42:22;;;;;;;7.15;6.45;;;6.00;89.80;;;;;;5014714;28;20052;-70
2021/12/04 03:44:49;;;;;;;7.68;6.60;;;6.00;89.80;;;;;;5028737;28;20037;-70
2021/12/04 03:47:16;;;;;;;7.30;6.57;;;6.00;89.90;;;;;;5027487;28;20105;-70
2021/12/04 03:49:41;;;;;;;8.07;7.28;;;6.10;89.90;;;;;;5029817;28;20036;-72
2021/12/04 03:52:08;;;;;;;7.53;6.82;;;6.10;89.80;;;;;;5027930;28;20124;-72
2021/12/04 03:54:35;;;;;;;7.30;6.55;;;6.20;89.80;;;;;;5025498;28;20116;-72
2021/12/04 03:57:03;;;;;;;7.75;6.80;;;6.10;89.70;;;;;;5027809;28;20065;-73
2021/12/04 03:59:33;;;;;;;7.25;6.53;;;6.20;89.70;;;;;;5027801;28;20603;-72
2021/12/04 04:01:59;;;;;;;9.32;7.45;;;6.20;89.60;;;;;;5028742;28;20542;-72
2021/12/04 04:04:25;;;;;;;7.68;6.88;;;6.20;89.40;;;;;;5028698;28;20041;-73
2021/12/04 04:06:51;;;;;;;7.88;7.10;;;6.20;89.60;;;;;;5028415;28;20057;-73
2021/12/04 04:09:17;;;;;;;7.80;7.00;;;6.20;89.40;;;;;;5028203;28;20369;-72
2021/12/04 04:11:43;;;;;;;8.77;7.88;;;6.20;89.50;;;;;;5028466;28;20035;-73
2021/12/04 04:14:08;;;;;;;8.85;7.47;;;6.20;89.50;;;;;;5027619;28;20521;-73
2021/12/04 04:16:39;;;;;;;8.43;7.63;;;6.20;89.50;;;;;;5026850;28;20083;-72
2021/12/04 04:19:06;;;;;;;8.90;8.02;;;6.20;89.40;;;;;;5028945;28;20116;-72
2021/12/04 04:21:32;;;;;;;9.05;7.10;;;6.20;89.50;;;;;;5044744;28;20029;-68
2021/12/04 04:23:58;;;;;;;8.35;7.55;;;6.20;89.40;;;;;;5033534;28;20061;-69
2021/12/04 04:26:23;;;;;;;9.85;8.35;;;6.20;89.40;;;;;;5027188;28;20072;-68
2021/12/04 04:28:49;;;;;;;9.52;7.65;;;6.20;89.40;;;;;;5028746;28;20460;-68
2021/12/04 04:31:15;;;;;;;10.20;7.75;;;6.20;89.40;;;;;;5022393;28;20038;-68
2021/12/04 04:33:43;;;;;;;10.50;8.20;;;6.20;89.40;;;;;;5013974;28;20036;-68
2021/12/04 05:11:20;;;;;;;10.38;8.13;;;6.10;89.70;;;;;;5031357;28;20052;-70
2021/12/04 05:13:47;;;;;;;14.38;9.63;;;6.10;89.70;;;;;;5031677;28;20033;-70
2021/12/04 05:16:16;;;;;;;13.57;9.00;;;6.10;89.80;;;;;;5031202;28;20042;-70
2021/12/04 05:18:55;;;;;;;15.85;11.57;;;6.10;89.80;;;;;;5032289;28;20029;-70
2021/12/04 05:21:21;;;;;;;16.80;11.07;;;6.10;89.90;;;;;;5028850;28;20456;-70
2021/12/04 05:23:52;;;;;;;15.52;10.93;;;6.10;90.00;;;;;;5025634;28;20060;-66
2021/12/04 05:26:21;;;;;;;18.77;11.55;;;6.10;90.00;;;;;;5040707;28;20041;-66
2021/12/04 05:28:47;;;;;;;18.67;11.70;;;6.00;90.00;;;;;;5032474;28;20026;-66
2021/12/04 05:31:13;;;;;;;15.38;10.80;;;6.00;90.10;;;;;;5029826;28;20032;-66
2021/12/04 05:33:39;;;;;;;21.55;11.57;;;6.00;90.10;;;;;;5031821;28;20078;-66
2021/12/04 05:36:07;;;;;;;17.60;10.98;;;6.10;90.10;;;;;;5029745;28;20040;-65
2021/12/04 05:38:33;;;;;;;16.80;10.77;;;6.10;90.00;;;;;;5030258;28;20021;-66
2021/12/04 05:40:59;;;;;;;20.63;11.98;;;6.10;90.00;;;;;;5029287;28;20057;-66
2021/12/04 05:43:26;;;;;;;16.63;11.82;;;6.10;90.30;;;;;;5030915;28;20045;-66
2021/12/04 05:46:03;;;;;;;20.25;12.40;;;6.10;90.10;;;;;;5045023;28;20507;-66
2021/12/04 05:49:04;;;;;;;17.42;11.38;;;6.10;90.00;;;;;;5030242;28;20038;-66
2021/12/04 05:56:17;;;;;;;23.05;12.35;;;6.00;90.10;;;;;;5024898;28;20045;-65
2021/12/04 05:58:43;;;;;;;17.42;11.48;;;6.10;90.20;;;;;;5031530;28;20345;-68
2021/12/04 06:01:10;;;;;;;19.92;12.30;;;6.00;90.10;;;;;;5030530;28;20048;-66
2021/12/04 06:03:36;;;;;;;22.67;13.73;;;6.00;90.10;;;;;;5030219;28;20076;-66
2021/12/04 06:06:03;;;;;;;24.58;13.45;;;6.10;90.20;;;;;;5029972;28;20057;-66
2021/12/04 06:08:29;;;;;;;22.55;13.23;;;6.00;90.10;;;;;;5030778;28;20033;-70
2021/12/04 06:10:57;;;;;;;19.35;12.85;;;6.00;90.10;;;;;;5030644;28;20021;-70
2021/12/04 06:13:23;;;;;;;17.17;12.20;;;6.10;90.20;;;;;;5024870;28;20053;-70
2021/12/04 06:15:50;;;;;;;19.88;11.75;;;6.10;90.10;;;;;;5024373;28;20364;-70
2021/12/04 06:18:16;;;;;;;15.63;10.32;;;6.10;90.10;;;;;;5029219;28;20404;-70
2021/12/04 06:23:27;;;;;;;17.20;11.68;;;6.10;90.10;;;;;;5023413;28;20409;-70
2021/12/04 06:25:53;;;;;;;20.80;12.98;;;6.10;90.10;;;;;;5009112;28;20022;-70
2021/12/04 06:28:18;;;;;;;18.35;11.40;;;6.20;90.10;;;;;;5030836;28;20022;-70
2021/12/04 06:30:44;;;;;;;19.48;11.60;;;6.10;90.10;;;;;;5030984;28;20036;-66
2021/12/04 06:33:13;;;;;;;20.90;11.43;;;6.10;90.10;;;;;;5030944;28;20041;-66
2021/12/04 06:35:40;;;;;;;22.52;13.10;;;6.20;90.10;;;;;;5029686;28;20078;-66
2021/12/04 06:38:08;;;;;;;21.70;12.02;;;6.20;90.00;;;;;;5029206;28;20439;-66
2021/12/04 06:40:35;;;;;;;23.95;11.20;;;6.10;90.00;;;;;;5028216;28;20021;-66
2021/12/04 06:43:02;;;;;;;24.08;12.18;;;6.10;90.10;;;;;;5029647;28;20130;-66
2021/12/04 06:45:30;;;;;;;18.42;11.73;;;6.10;90.10;;;;;;5045740;28;20025;-66
2021/12/04 06:48:03;;;;;;;21.30;12.27;;;6.20;90.10;;;;;;5028936;28;20112;-66
2021/12/04 06:52:59;;;;;;;18.33;11.40;;;6.10;90.10;;;;;;5030537;28;20033;-66
2021/12/04 06:55:29;;;;;;;20.55;11.02;;;6.10;90.10;;;;;;5028626;28;20108;-66
2021/12/04 06:57:55;;;;;;;18.95;11.35;;;6.20;90.10;;;;;;5030074;28;20025;-66
2021/12/04 07:00:20;;;;;;;20.73;12.05;;;6.20;90.10;;;;;;5029983;28;20392;-66
2021/12/04 07:02:46;;;;;;;21.35;13.25;;;6.20;90.10;;;;;;5030098;28;20037;-66
2021/12/04 07:05:12;;;;;;;17.05;12.07;;;6.20;90.00;;;;;;5016346;28;20169;-67
2021/12/04 07:07:37;;;;;;;22.48;13.88;;;6.20;90.00;;;;;;5015312;28;20025;-66
2021/12/04 07:10:03;;;;;;;21.48;13.50;;;6.30;90.00;;;;;;5029922;28;20037;-66
2021/12/04 07:12:29;;;;;;;18.70;12.48;;;6.30;90.00;;;;;;5030191;28;20029;-66
2021/12/04 07:14:55;;;;;;;20.63;11.77;;;6.30;90.20;;;;;;5044307;28;20034;-67
2021/12/04 07:17:20;;;;;;;22.15;13.88;;;6.30;90.00;;;;;;5028995;28;20469;-67
2021/12/04 07:19:46;;;;;;;21.45;13.80;;;6.30;90.00;;;;;;5030530;28;20021;-66
2021/12/04 07:22:12;;;;;;;19.67;13.05;;;6.30;90.00;;;;;;5028362;28;20042;-66
2021/12/04 07:24:38;;;;;;;18.52;12.90;;;6.30;90.00;;;;;;5028593;28;20056;-69
2021/12/04 07:27:05;;;;;;;19.05;12.23;;;6.30;89.90;;;;;;5028877;28;20060;-69
2021/12/04 07:29:31;;;;;;;21.10;13.77;;;6.30;90.00;;;;;;5029328;28;20026;-69
2021/12/04 07:31:57;;;;;;;17.30;13.18;;;6.40;90.00;;;;;;5027720;28;20087;-69
2021/12/04 07:34:23;;;;;;;22.65;13.35;;;6.30;90.00;;;;;;5029792;28;20492;-69
2021/12/04 07:36:49;;;;;;;20.33;14.00;;;6.30;89.90;;;;;;5031599;28;20043;-69
2021/12/04 07:39:14;;;;;;;21.48;13.73;;;6.30;89.80;;;;;;5028639;28;20104;-69
2021/12/04 07:41:42;;;;;;;21.05;13.85;;;6.30;89.90;;;;;;5027374;28;20158;-69
2021/12/04 07:44:09;;;;;;;21.55;14.70;;;6.30;90.00;;;;;;5029642;28;20112;-70
2021/12/04 07:46:39;;;;;;;18.45;13.27;;;6.30;90.00;;;;;;5027322;28;20035;-70
2021/12/04 07:49:05;;;;;;;19.52;12.38;;;6.30;90.00;;;;;;5029399;28;20029;-70
2021/12/04 07:51:32;;;;;;;21.35;14.23;;;6.30;90.00;;;;;;5027377;28;20091;-70
2021/12/04 07:53:58;;;;;;;20.48;14.23;;;6.30;90.00;;;;;;5029372;28;20040;-70
2021/12/04 07:56:24;;;;;;;23.80;14.65;;;6.40;90.00;;;;;;5021548;28;20392;-70
2021/12/04 07:58:50;;;;;;;25.20;14.93;;;6.40;90.00;;;;;;5011515;28;20036;-70
2021/12/04 08:01:15;;;;;;;19.65;14.32;;;6.40;90.00;;;;;;5028552;28;20128;-70
2021/12/04 08:03:42;;;;;;;25.48;14.52;;;6.40;90.00;;;;;;5027973;28;20120;-70
2021/12/04 08:06:08;;;;;;;20.83;14.13;;;6.40;89.90;;;;;;5028168;28;20524;-71
2021/12/04 08:08:34;;;;;;;21.02;13.80;;;6.40;89.90;;;;;;5029397;28;20033;-70
2021/12/04 08:11:00;;;;;;;19.98;13.02;;;6.30;89.90;;;;;;5025902;28;20108;-70
2021/12/04 08:13:26;;;;;;;19.50;13.77;;;6.30;90.00;;;;;;5013504;28;20030;-70
2021/12/04 08:15:52;;;;;;;20.25;13.07;;;6.30;90.00;;;;;;5019273;28;20060;-71
2021/12/04 08:18:17;;;;;;;20.55;14.15;;;6.30;90.00;;;;;;5027706;28;20052;-71
2021/12/04 08:20:45;;;;;;;19.85;13.60;;;6.40;90.00;;;;;;5028742;28;20384;-71
2021/12/04 08:23:10;;;;;;;26.98;15.35;;;6.40;90.00;;;;;;5027628;28;20125;-71
2021/12/04 08:25:37;;;;;;;22.50;14.40;;;6.40;90.00;;;;;;5024136;28;20152;-71
2021/12/04 08:28:03;;;;;;;22.02;14.90;;;6.40;89.80;;;;;;5027430;28;20060;-71
2021/12/04 08:30:32;;;;;;;18.40;13.30;;;6.40;89.90;;;;;;5021898;28;20033;-71
2021/12/04 08:32:59;;;;;;;18.92;13.45;;;6.40;90.00;;;;;;5021764;28;20113;-79
2021/12/04 08:35:29;;;;;;;20.92;13.65;;;6.40;90.00;;;;;;5028691;28;20029;-79
2021/12/04 08:37:58;;;;;;;23.02;14.20;;;6.40;89.90;;;;;;5029261;28;20029;-79
2021/12/04 08:40:25;;;;;;;18.60;12.68;;;6.40;90.00;;;;;;5031224;28;20068;-78
2021/12/04 08:42:51;;;;;;;18.23;11.30;;;6.40;90.00;;;;;;5049720;28;20492;-79
2021/12/04 08:45:18;;;;;;;21.60;13.23;;;6.40;90.00;;;;;;5035525;28;20033;-79
2021/12/04 08:47:44;;;;;;;17.73;12.60;;;6.40;90.00;;;;;;5030353;28;20044;-79
2021/12/04 08:50:16;;;;;;;21.77;13.45;;;6.40;90.00;;;;;;5025257;28;20022;-79
2021/12/04 08:52:42;;;;;;;22.15;13.60;;;6.40;90.00;;;;;;5013021;28;20037;-79
2021/12/04 08:55:09;;;;;;;19.98;12.70;;;6.40;90.00;;;;;;5019262;28;20029;-79
2021/12/04 08:57:35;;;;;;;19.88;12.52;;;6.40;90.00;;;;;;5012588;28;20041;-79
2021/12/04 09:00:01;;;;;;;22.42;13.25;;;6.40;90.00;;;;;;5029777;28;20022;-79
2021/12/04 09:02:27;;;;;;;19.15;12.35;;;6.40;90.00;;;;;;5030628;28;20358;-79
2021/12/04 09:04:54;;;;;;;18.02;13.00;;;6.40;90.00;;;;;;5018377;28;20049;-79
2021/12/04 09:07:20;;;;;;;22.83;13.25;;;6.40;90.00;;;;;;5025509;28;20158;-79
2021/12/04 09:09:47;;;;;;;21.92;13.30;;;6.50;90.00;;;;;;5020092;28;20096;-79
2021/12/04 09:12:14;;;;;;;25.17;14.98;;;6.50;90.00;;;;;;5022017;28;20038;-79
2021/12/04 09:14:42;;;;;;;21.83;13.30;;;6.50;90.00;;;;;;5017309;28;20130;-79
2021/12/04 09:17:11;;;;;;;22.33;14.65;;;6.50;90.00;;;;;;5022792;28;20502;-79
2021/12/04 09:19:37;;;;;;;21.13;13.32;;;6.50;90.00;;;;;;5029679;28;20520;-79
2021/12/04 09:22:06;;;;;;;25.92;14.40;;;6.50;90.00;;;;;;5028922;28;20476;-79
2021/12/04 09:24:40;;;;;;;20.17;13.90;;;6.50;90.00;;;;;;5028998;28;20480;-79
2021/12/04 10:32:39;;;;;;;28.77;15.57;;;6.60;90.20;;;;;;5042613;28;20021;-70
2021/12/04 10:35:16;;;;;;;27.00;15.73;;;6.60;90.10;;;;;;5026791;28;20034;-71
2021/12/04 10:38:15;;;;;;;27.10;16.70;;;6.60;90.20;;;;;;5025656;28;20447;-71
2021/12/04 10:40:43;;;;;;;28.05;15.32;;;6.60;90.20;;;;;;5024237;28;20032;-71
2021/12/04 10:43:21;;;;;;;26.58;14.18;;;6.60;90.20;;;;;;5034136;28;20514;-70
2021/12/04 10:45:52;;;;;;;33.25;15.50;;;6.60;90.20;;;;;;5026810;28;20401;-70
2021/12/04 10:48:22;;;;;;;27.00;13.65;;;6.60;90.30;;;;;;5030392;28;20180;-71
2021/12/04 10:51:03;;;;;;;24.40;13.90;;;6.60;90.20;;;;;;5025621;28;20030;-70
2021/12/04 10:53:34;;;;;;;26.35;15.30;;;6.60;90.20;;;;;;5027092;28;20033;-71
2021/12/04 11:04:39;;;;;;;31.05;14.50;;;6.60;90.30;;;;;;5027401;28;20415;-71
2021/12/04 11:18:47;;;;;;;28.95;14.52;;;6.60;90.30;;;;;;5033373;28;20044;-79
2021/12/04 11:43:10;;;;;;;19.73;13.63;;;6.70;90.20;;;;;;5034296;28;20086;-79
2021/12/04 11:48:31;;;;;;;21.45;13.52;;;6.70;90.20;;;;;;5029081;28;20507;-79
2021/12/04 11:50:58;;;;;;;23.10;13.70;;;6.70;90.20;;;;;;5016120;28;20485;-79
2021/12/04 11:53:25;;;;;;;20.08;14.18;;;6.70;90.20;;;;;;5007940;28;20436;-79
2021/12/04 11:55:51;;;;;;;20.08;13.23;;;6.80;90.10;;;;;;5023936;28;20163;-79
2021/12/04 11:58:31;;;;;;;18.65;13.20;;;6.80;90.10;;;;;;5013495;28;20029;-79
2021/12/04 12:01:04;;;;;;;18.20;13.05;;;6.80;90.00;;;;;;5028508;28;20369;-79
2021/12/04 12:03:33;;;;;;;19.45;13.32;;;6.80;89.80;;;;;;5014276;28;20026;-79
2021/12/04 12:06:04;;;;;;;17.70;13.02;;;6.80;89.90;;;;;;5009054;28;20044;-79
2021/12/04 12:08:43;;;;;;;15.38;12.45;;;6.80;89.80;;;;;;5012350;28;20080;-79
2021/12/04 12:11:13;;;;;;;16.40;12.35;;;6.80;89.80;;;;;;5029975;28;20028;-79
2021/12/04 12:13:45;;;;;;;15.52;12.60;;;6.80;89.90;;;;;;5035061;28;20445;-79
2021/12/04 12:16:19;;;;;;;15.43;12.52;;;6.80;89.90;;;;;;5024556;28;20022;-80
2021/12/04 12:19:00;;;;;;;18.90;13.57;;;6.90;89.90;;;;;;5033849;28;20075;-79
2021/12/04 12:21:57;;;;;;;16.15;12.70;;;6.90;89.90;;;;;;5042672;28;20025;-79
2021/12/04 12:32:54;;;;;;;15.25;12.68;;;7.00;89.60;;;;;;5026026;28;20048;-79
2021/12/04 12:38:08;;;;;;;14.25;12.35;;;6.90;89.70;;;;;;5036859;28;20094;-79
2021/12/04 12:40:33;;;;;;;15.02;12.55;;;6.90;89.90;;;;;;5025892;28;20025;-79
2021/12/04 12:43:10;;;;;;;15.77;13.18;;;6.90;90.00;;;;;;5021877;28;20511;-79
2021/12/04 12:45:36;;;;;;;15.27;12.95;;;6.90;90.00;;;;;;5026855;28;20037;-79
2021/12/04 12:48:05;;;;;;;13.70;12.30;;;6.90;89.90;;;;;;5026393;28;20546;-79
2021/12/04 12:50:41;;;;;;;14.13;11.82;;;6.90;89.90;;;;;;5024956;28;20067;-79
2021/12/04 12:53:13;;;;;;;13.70;12.10;;;6.90;89.80;;;;;;5031661;28;20025;-79
2021/12/04 12:55:41;;;;;;;14.10;12.18;;;6.90;89.80;;;;;;5019981;28;20112;-79
2021/12/04 12:58:38;;;;;;;13.05;11.60;;;7.00;89.90;;;;;;5026067;28;20033;-79
2021/12/04 13:12:49;;;;;;;13.63;12.00;;;6.90;89.60;;;;;;5029419;28;20087;-79
2021/12/04 13:15:39;;;;;;;13.35;11.95;;;6.90;89.70;;;;;;5028860;28;20498;-79
2021/12/04 13:18:21;;;;;;;15.18;13.57;;;6.90;89.80;;;;;;5036923;28;20764;-79
2021/12/04 13:20:47;;;;;;;14.05;12.43;;;6.90;89.90;;;;;;5030393;28;20029;-79
2021/12/04 13:23:16;;;;;;;14.77;13.18;;;7.00;89.90;;;;;;5033185;28;20481;-79
2021/12/04 13:26:04;;;;;;;14.73;13.10;;;7.00;89.90;;;;;;5030158;28;20036;-79
2021/12/04 13:28:32;;;;;;;15.50;13.20;;;7.00;89.80;;;;;;5039319;28;20025;-80
2021/12/04 13:31:00;;;;;;;14.50;12.70;;;7.00;89.80;;;;;;5032351;28;20100;-80
2021/12/04 13:33:28;;;;;;;15.68;13.98;;;7.00;89.80;;;;;;5031330;28;20022;-79
2021/12/04 13:35:54;;;;;;;13.88;11.95;;;7.00;89.80;;;;;;5029843;28;20033;-79
2021/12/04 13:38:22;;;;;;;17.42;13.68;;;7.00;89.70;;;;;;5023062;28;20519;-80
2021/12/04 13:40:49;;;;;;;13.38;12.00;;;7.00;89.70;;;;;;5031455;28;20031;-79
2021/12/04 13:43:16;;;;;;;13.23;11.82;;;7.00;89.80;;;;;;5030045;28;20061;-79
2021/12/04 13:45:43;;;;;;;12.32;11.13;;;7.00;89.80;;;;;;5027208;28;20026;-80
2021/12/04 13:48:09;;;;;;;13.25;11.85;;;7.00;89.80;;;;;;5030190;28;20362;-79
2021/12/04 13:53:12;;;;;;;13.35;12.05;;;7.00;89.80;;;;;;5043039;28;20060;-72
2021/12/04 13:55:42;;;;;;;12.70;11.38;;;7.00;89.90;;;;;;5030023;28;20025;-80
2021/12/04 13:58:08;;;;;;;11.40;10.30;;;7.00;89.90;;;;;;5014710;28;20032;-79
2021/12/04 14:00:34;;;;;;;12.68;10.77;;;7.00;89.80;;;;;;5027948;28;20489;-79
2021/12/04 14:03:00;;;;;;;11.45;10.35;;;7.00;89.90;;;;;;5027664;28;20025;-71
2021/12/04 14:05:27;;;;;;;12.43;10.57;;;7.00;89.90;;;;;;5010373;28;20038;-71
2021/12/04 14:07:55;;;;;;;11.27;10.18;;;7.00;90.00;;;;;;5020589;28;20022;-71
2021/12/04 14:10:26;;;;;;;11.63;10.40;;;7.00;89.90;;;;;;5039820;28;20025;-72
2021/12/04 14:12:53;;;;;;;11.88;10.68;;;7.00;89.90;;;;;;5030381;28;20511;-72
2021/12/04 14:15:21;;;;;;;12.77;11.48;;;7.00;89.80;;;;;;5026353;28;20079;-72
2021/12/04 14:18:09;;;;;;;12.13;10.93;;;7.00;89.80;;;;;;5026876;28;20022;-72
2021/12/04 14:20:37;;;;;;;13.15;11.32;;;7.00;89.80;;;;;;5029980;28;20037;-72
2021/12/04 14:23:03;;;;;;;12.88;11.27;;;7.00;89.80;;;;;;5028171;28;20034;-72
2021/12/04 14:25:29;;;;;;;13.73;11.90;;;7.00;90.00;;;;;;5009763;28;20327;-72
2021/12/04 14:27:59;;;;;;;13.07;11.55;;;7.00;90.00;;;;;;5029404;28;20025;-72
2021/12/04 14:30:33;;;;;;;15.55;12.95;;;7.00;89.90;;;;;;5016606;28;20029;-72
2021/12/04 14:33:01;;;;;;;13.13;11.75;;;7.00;89.90;;;;;;5010279;28;20575;-78
2021/12/04 14:35:36;;;;;;;13.80;11.45;;;7.00;89.90;;;;;;5018885;28;20029;-72
2021/12/04 14:38:05;;;;;;;13.18;11.75;;;7.00;90.00;;;;;;5030709;28;20037;-72
2021/12/04 14:40:52;;;;;;;14.48;11.98;;;6.90;90.00;;;;;;5029487;28;20029;-71
2021/12/04 14:43:24;;;;;;;17.00;13.20;;;6.90;90.00;;;;;;5027584;28;20029;-71
2021/12/04 14:45:55;;;;;;;12.43;11.13;;;6.90;90.00;;;;;;5030584;28;20362;-72
2021/12/04 14:48:30;;;;;;;14.07;12.60;;;6.90;90.00;;;;;;5023672;28;20488;-71
2021/12/04 14:51:07;;;;;;;14.75;12.77;;;6.90;90.00;;;;;;5028651;28;20546;-71
2021/12/04 14:53:34;;;;;;;13.75;11.85;;;6.90;90.00;;;;;;5029686;28;20033;-69
2021/12/04 14:56:07;;;;;;;16.30;13.88;;;6.90;90.10;;;;;;5050796;28;20052;-69
2021/12/04 14:58:33;;;;;;;;;;;6.90;90.10;;;;;;5024864;28;20025;-68
2021/12/04 15:01:13;;;;;;;16.35;13.35;;;6.90;90.00;;;;;;5029000;28;20325;-68
2021/12/04 15:03:43;;;;;;;16.15;13.90;;;6.90;90.00;;;;;;5035295;28;20041;-68
2021/12/04 15:06:14;;;;;;;16.52;13.82;;;6.90;90.00;;;;;;5028126;28;20591;-68
2021/12/04 15:09:02;;;;;;;17.10;14.57;;;6.90;90.10;;;;;;5030414;28;20086;-68
2021/12/04 15:11:32;;;;;;;17.00;13.57;;;7.00;90.10;;;;;;5022059;28;20029;-68
2021/12/04 15:14:02;;;;;;;15.60;13.43;;;6.90;90.10;;;;;;5030859;28;20502;-74
2021/12/04 15:16:38;;;;;;;17.98;13.98;;;7.00;90.10;;;;;;5009108;28;20499;-74
2021/12/04 15:19:39;;;;;;;14.40;12.52;;;7.00;90.20;;;;;;5036702;28;20064;-75
2021/12/04 15:22:08;;;;;;;15.65;12.32;;;6.90;90.10;;;;;;5018445;28;20032;-75
2021/12/04 15:24:38;;;;;;;76.13;67.85;;;6.90;90.40;;;;;;5026295;28;20026;-68
2021/12/04 15:27:08;;;;;;;37.15;32.20;;;6.90;90.10;;;;;;5027960;28;20032;-69
2021/12/04 15:29:35;;;;;;;23.98;20.17;;;6.90;90.20;;;;;;5033542;28;20022;-76
2021/12/04 15:32:10;;;;;;;20.35;16.00;;;6.90;90.20;;;;;;5022200;28;20056;-68
2021/12/04 15:34:46;;;;;;;14.88;12.45;;;6.90;90.20;;;;;;5018276;28;20033;-68
2021/12/04 15:37:12;;;;;;;13.57;11.90;;;7.00;90.20;;;;;;5017261;28;20158;-68
2021/12/04 15:39:46;;;;;;;20.85;18.40;;;7.00;90.20;;;;;;5025813;28;20112;-68
2021/12/04 15:42:29;;;;;;;16.15;13.60;;;6.90;90.40;;;;;;5022248;28;20029;-68
2021/12/04 15:48:43;;;;;;;12.85;11.43;;;6.90;90.20;;;;;;5025067;28;20327;-68
2021/12/04 15:50:51;;;;;;;12.38;10.80;;;6.90;90.30;;;;;;5026847;28;20033;-68
2021/12/04 15:53:17;;;;;;;17.90;13.18;;;6.90;90.30;;;;;;5026145;28;20022;-68
2021/12/04 15:55:53;;;;;;;15.20;12.65;;;6.90;90.30;;;;;;5022618;28;20049;-80
2021/12/04 15:58:21;;;;;;;14.13;11.27;;;6.90;90.30;;;;;;5024647;28;20025;-80
2021/12/04 16:00:56;;;;;;;14.05;11.95;;;6.90;90.40;;;;;;5025892;28;20029;-80
2021/12/04 16:03:24;;;;;;;14.27;12.13;;;6.90;90.40;;;;;;5020047;28;20538;-79
2021/12/04 16:05:58;;;;;;;14.60;12.48;;;6.90;90.40;;;;;;5025284;28;20054;-79
2021/12/04 16:08:27;;;;;;;16.35;12.73;;;6.90;90.40;;;;;;5028819;28;20033;-68
2021/12/04 16:10:54;;;;;;;15.60;13.90;;;6.90;90.40;;;;;;5028004;28;20049;-68
2021/12/04 16:13:25;;;;;;;15.82;12.18;;;6.90;90.40;;;;;;5025762;28;20040;-68
2021/12/04 16:15:52;;;;;;;15.07;12.13;;;6.90;90.40;;;;;;5022692;28;20026;-68
2021/12/04 16:18:18;;;;;;;16.92;11.68;;;7.00;90.40;;;;;;5024083;28;20065;-68